Time;durP1;ratioP1;P1;durP2;ratioP2;P2;SDS_P1;SDS_P2;PMS_P1;PMS_P2;Temp;Humidity;BMP_temperature;BMP_pressure;BME280_temperature;BME280_humidity;BME280_pressure;Samples;Min_cycle;Max_cycle;Signal;HPM_P1;HPM_P2
2022/08/23 00:03:03;;;;;;;4.80;4.30;;;19.50;1.00;;;;;;6284430;28;20244;-55
2022/08/23 00:06:07;;;;;;;5.03;4.63;;;19.50;1.00;;;;;;6284091;28;20226;-56
2022/08/23 00:09:11;;;;;;;5.00;4.60;;;19.50;1.00;;;;;;6280226;28;20635;-55
2022/08/23 00:12:17;;;;;;;4.93;4.53;;;19.50;1.00;;;;;;6285008;28;20323;-56
2022/08/23 00:15:21;;;;;;;5.60;5.23;;;19.50;1.00;;;;;;6283459;28;20231;-56
2022/08/23 00:18:26;;;;;;;5.63;4.90;;;19.50;1.00;;;;;;6282153;28;20400;-56
2022/08/23 00:21:29;;;;;;;4.33;4.03;;;19.50;1.00;;;;;;6284403;28;20249;-54
2022/08/23 00:24:32;;;;;;;5.13;4.83;;;19.40;1.00;;;;;;6275283;28;20248;-55
2022/08/23 00:27:40;;;;;;;5.60;5.13;;;19.40;1.00;;;;;;6260592;28;20246;-59
2022/08/23 00:30:43;;;;;;;5.60;5.23;;;19.30;1.00;;;;;;6272993;28;20582;-55
2022/08/23 00:33:47;;;;;;;5.47;5.07;;;19.30;1.00;;;;;;6276592;28;20229;-56
2022/08/23 00:36:51;;;;;;;4.77;4.57;;;19.40;1.00;;;;;;6284933;28;20361;-54
2022/08/23 00:39:54;;;;;;;5.83;5.07;;;19.40;1.00;;;;;;6259248;28;20619;-54
2022/08/23 00:50:12;;;;;;;5.33;4.93;;;19.20;1.00;;;;;;6281765;28;20324;-55
2022/08/23 00:53:28;;;;;;;5.33;4.50;;;19.10;1.00;;;;;;6283681;28;20236;-55
2022/08/23 00:56:34;;;;;;;6.57;4.87;;;19.10;1.00;;;;;;6277831;28;20834;-56
2022/08/23 00:59:37;;;;;;;4.77;4.30;;;19.10;1.00;;;;;;6259498;28;20845;-55
2022/08/23 01:02:52;;;;;;;6.73;5.43;;;19.10;1.00;;;;;;6279055;28;20312;-57
2022/08/23 01:06:13;;;;;;;4.87;4.57;;;19.10;1.00;;;;;;6275046;28;20235;-55
2022/08/23 01:09:19;;;;;;;5.77;4.97;;;19.10;1.00;;;;;;6283387;28;20614;-54
2022/08/23 01:12:35;;;;;;;4.93;4.53;;;19.10;1.00;;;;;;6283304;28;20243;-55
2022/08/23 01:15:43;;;;;;;5.90;5.40;;;19.10;1.00;;;;;;6280853;28;20773;-56
2022/08/23 01:18:47;;;;;;;5.80;4.80;;;19.10;1.00;;;;;;6274273;28;20369;-56
2022/08/23 01:21:59;;;;;;;5.40;5.10;;;19.20;1.00;;;;;;6279946;28;20729;-56
2022/08/23 01:25:06;;;;;;;5.87;4.73;;;19.20;1.00;;;;;;6250956;28;20288;-54
2022/08/23 01:28:11;;;;;;;5.57;5.17;;;19.10;1.00;;;;;;6258947;28;20249;-56
2022/08/23 01:31:17;;;;;;;6.97;4.53;;;19.20;1.00;;;;;;6260618;28;20287;-56
2022/08/23 01:34:26;;;;;;;5.30;4.60;;;19.10;1.00;;;;;;6279891;28;20244;-55
2022/08/23 01:37:28;;;;;;;4.83;4.63;;;19.10;1.00;;;;;;6283313;28;20294;-55
2022/08/23 01:40:33;;;;;;;4.70;4.30;;;19.10;1.00;;;;;;6282804;28;20241;-54
2022/08/23 01:43:36;;;;;;;4.20;3.93;;;19.10;1.00;;;;;;6283492;28;20395;-57
2022/08/23 01:46:44;;;;;;;4.73;4.20;;;19.10;1.00;;;;;;6283596;28;20316;-55
2022/08/23 01:49:47;;;;;;;4.47;4.13;;;19.10;1.00;;;;;;6281256;28;20714;-55
2022/08/23 01:52:52;;;;;;;7.47;4.10;;;19.00;1.00;;;;;;6258736;28;20662;-60
2022/08/23 01:55:56;;;;;;;4.30;4.03;;;19.10;1.00;;;;;;6258547;28;20321;-55
2022/08/23 01:59:00;;;;;;;4.57;4.17;;;19.10;1.00;;;;;;6257817;28;20319;-56
2022/08/23 02:02:04;;;;;;;4.70;4.37;;;19.00;1.00;;;;;;6258823;28;20238;-57
2022/08/23 02:05:08;;;;;;;5.67;4.63;;;19.00;1.00;;;;;;6282754;28;20259;-55
2022/08/23 02:11:39;;;;;;;6.30;4.37;;;19.00;1.00;;;;;;6257822;28;20289;-55
2022/08/23 02:14:44;;;;;;;4.50;4.20;;;19.00;1.00;;;;;;6268013;28;20240;-55
2022/08/23 02:17:47;;;;;;;3.90;3.80;;;19.00;1.00;;;;;;6284397;28;20770;-54
2022/08/23 02:20:52;;;;;;;5.07;4.37;;;18.90;1.00;;;;;;6283203;28;20258;-54
2022/08/23 02:23:55;;;;;;;4.20;3.90;;;18.90;1.00;;;;;;6262507;28;20349;-59
2022/08/23 02:27:01;;;;;;;4.90;4.30;;;18.90;1.00;;;;;;6262748;28;20291;-54
2022/08/23 02:30:06;;;;;;;4.57;4.27;;;19.00;1.00;;;;;;6262146;28;20308;-55
2022/08/23 02:33:11;;;;;;;4.73;4.43;;;19.00;1.00;;;;;;6270508;28;20237;-56
2022/08/23 02:36:16;;;;;;;4.70;4.43;;;18.90;1.00;;;;;;6286676;28;20451;-56
2022/08/23 02:39:24;;;;;;;4.50;4.30;;;18.90;1.00;;;;;;6261733;28;20344;-55
2022/08/23 02:42:29;;;;;;;4.70;4.30;;;18.80;1.00;;;;;;6262287;28;20730;-55
2022/08/23 02:45:32;;;;;;;4.43;4.13;;;18.90;1.00;;;;;;6279942;28;20775;-56
2022/08/23 02:48:36;;;;;;;4.43;3.83;;;18.90;1.00;;;;;;6286926;28;20322;-55
2022/08/23 02:51:40;;;;;;;5.03;4.63;;;18.80;1.00;;;;;;6282813;28;20241;-55
2022/08/23 02:54:43;;;;;;;4.77;4.33;;;18.80;1.00;;;;;;6286270;28;20387;-55
2022/08/23 02:57:48;;;;;;;5.53;4.03;;;18.80;1.00;;;;;;6275195;28;20727;-54
2022/08/23 03:00:52;;;;;;;4.40;4.03;;;18.70;1.00;;;;;;6261237;28;20245;-54
2022/08/23 03:03:55;;;;;;;4.57;4.30;;;18.70;1.00;;;;;;6275386;28;20233;-56
2022/08/23 03:06:58;;;;;;;6.53;4.90;;;18.80;1.00;;;;;;6264388;28;20333;-55
2022/08/23 03:10:01;;;;;;;5.23;4.87;;;18.80;1.00;;;;;;6261174;28;20238;-55
2022/08/23 03:13:05;;;;;;;5.70;4.90;;;18.90;1.00;;;;;;6262056;28;20388;-56
2022/08/23 03:16:08;;;;;;;5.27;4.87;;;18.80;1.00;;;;;;6268784;28;20370;-56
2022/08/23 03:19:11;;;;;;;4.63;4.30;;;18.80;1.00;;;;;;6284004;28;20251;-55
2022/08/23 03:22:15;;;;;;;5.80;5.17;;;18.70;1.00;;;;;;6282119;28;20531;-54
2022/08/23 03:25:18;;;;;;;7.97;5.17;;;18.80;1.00;;;;;;6283762;28;20282;-54
2022/08/23 03:28:23;;;;;;;5.40;5.10;;;18.70;1.00;;;;;;6281345;28;20241;-55
2022/08/23 03:31:26;;;;;;;5.67;5.20;;;18.80;1.00;;;;;;6246202;28;20296;-53
2022/08/23 03:34:33;;;;;;;8.73;5.47;;;18.80;1.00;;;;;;6275947;28;20237;-55
2022/08/23 03:37:36;;;;;;;5.97;5.37;;;18.70;1.00;;;;;;6276813;28;20358;-55
2022/08/23 03:40:43;;;;;;;6.30;5.70;;;18.70;1.00;;;;;;6281190;28;20229;-56
2022/08/23 03:43:48;;;;;;;6.03;5.53;;;18.70;1.00;;;;;;6283999;28;20664;-55
2022/08/23 03:46:51;;;;;;;6.00;5.40;;;18.60;1.00;;;;;;6279140;28;20324;-56
2022/08/23 03:49:54;;;;;;;6.00;5.50;;;18.60;1.00;;;;;;6273407;28;20383;-55
2022/08/23 03:52:57;;;;;;;7.73;6.47;;;18.60;1.00;;;;;;6284706;28;20290;-56
2022/08/23 03:56:00;;;;;;;7.90;6.13;;;18.70;1.00;;;;;;6282984;28;20233;-56
2022/08/23 03:59:06;;;;;;;8.10;6.10;;;18.70;1.00;;;;;;6279074;28;20233;-55
2022/08/23 04:02:09;;;;;;;7.80;5.93;;;18.70;1.00;;;;;;6283936;28;20225;-55
2022/08/23 04:05:13;;;;;;;8.63;6.07;;;18.70;1.00;;;;;;6284347;28;20229;-54
2022/08/23 04:08:16;;;;;;;8.30;6.47;;;18.70;1.00;;;;;;6279663;28;20706;-56
2022/08/23 04:11:35;;;;;;;6.83;6.07;;;18.70;1.00;;;;;;6283226;28;20625;-55
2022/08/23 04:14:39;;;;;;;6.83;6.33;;;18.70;1.00;;;;;;6280643;28;20246;-54
2022/08/23 04:17:42;;;;;;;7.30;6.60;;;18.60;1.00;;;;;;6278632;28;20240;-55
2022/08/23 04:20:45;;;;;;;7.20;6.60;;;18.70;1.00;;;;;;6271521;28;20253;-54
2022/08/23 04:23:48;;;;;;;8.30;6.43;;;18.70;1.00;;;;;;6280023;28;20857;-56
2022/08/23 04:26:51;;;;;;;6.23;5.90;;;18.60;1.00;;;;;;6281036;28;20233;-56
2022/08/23 04:29:55;;;;;;;6.40;5.90;;;18.60;1.00;;;;;;6280629;28;20579;-55
2022/08/23 04:32:58;;;;;;;6.70;5.93;;;18.60;1.00;;;;;;6278554;28;20260;-54
2022/08/23 04:36:04;;;;;;;7.23;5.77;;;18.60;1.00;;;;;;6282438;28;20320;-54
2022/08/23 04:39:08;;;;;;;6.43;5.93;;;18.60;1.00;;;;;;6279220;28;20773;-54
2022/08/23 04:42:19;;;;;;;8.30;6.27;;;18.70;1.00;;;;;;6269515;28;20247;-55
2022/08/23 04:45:33;;;;;;;6.17;5.77;;;18.80;1.00;;;;;;6275846;28;20228;-54
2022/08/23 04:48:36;;;;;;;7.37;6.10;;;18.80;1.00;;;;;;6271238;28;20428;-54
2022/08/23 04:51:39;;;;;;;7.77;6.27;;;18.80;1.00;;;;;;6279614;28;20241;-57
2022/08/23 04:54:42;;;;;;;6.30;5.80;;;18.80;1.00;;;;;;6275750;28;20383;-55
2022/08/23 04:57:45;;;;;;;6.83;6.13;;;18.70;1.00;;;;;;6279269;28;20666;-55
2022/08/23 05:00:51;;;;;;;6.23;5.70;;;18.70;1.00;;;;;;6269043;28;20763;-55
2022/08/23 05:03:54;;;;;;;8.10;5.73;;;18.70;1.00;;;;;;6273219;28;20234;-56
2022/08/23 05:06:57;;;;;;;6.67;6.07;;;18.70;1.00;;;;;;6274019;28;20632;-55
2022/08/23 05:10:00;;;;;;;6.13;5.63;;;18.70;1.00;;;;;;6268976;28;20500;-56
2022/08/23 05:13:03;;;;;;;6.63;6.10;;;18.70;1.00;;;;;;6264510;28;20730;-56
2022/08/23 05:16:09;;;;;;;5.83;5.43;;;18.80;1.00;;;;;;6280447;28;20324;-56
2022/08/23 05:19:13;;;;;;;7.57;5.67;;;18.80;1.00;;;;;;6271451;28;20737;-55
2022/08/23 05:22:16;;;;;;;6.63;6.00;;;18.80;1.00;;;;;;6281340;28;20228;-56
2022/08/23 05:25:19;;;;;;;8.50;6.50;;;18.90;1.00;;;;;;6276040;28;20230;-55
2022/08/23 05:28:25;;;;;;;7.53;5.77;;;19.00;1.00;;;;;;6277150;28;20296;-55
2022/08/23 05:31:33;;;;;;;10.87;5.80;;;18.90;1.00;;;;;;6274511;28;20522;-55
2022/08/23 05:34:37;;;;;;;5.97;5.53;;;18.90;1.00;;;;;;6273006;28;20486;-56
2022/08/23 05:37:40;;;;;;;6.73;6.07;;;18.90;1.00;;;;;;6268940;28;20241;-55
2022/08/23 05:40:43;;;;;;;5.57;5.03;;;18.90;1.00;;;;;;6280307;28;20326;-57
2022/08/23 05:43:50;;;;;;;5.60;5.20;;;19.00;1.00;;;;;;6272885;28;20241;-56
2022/08/23 05:46:54;;;;;;;8.97;6.20;;;19.00;1.00;;;;;;6278365;28;20234;-55
2022/08/23 05:49:57;;;;;;;7.10;6.50;;;19.00;1.00;;;;;;6282411;28;20294;-55
2022/08/23 05:53:01;;;;;;;12.27;6.30;;;19.00;1.00;;;;;;6281752;28;20378;-57
2022/08/23 05:56:12;;;;;;;5.27;4.90;;;19.10;1.00;;;;;;6275034;28;20330;-57
2022/08/23 05:59:18;;;;;;;6.43;5.83;;;19.20;1.00;;;;;;6282061;28;20364;-56
2022/08/23 06:02:34;;;;;;;6.47;6.00;;;19.30;1.00;;;;;;6280855;28;20237;-55
2022/08/23 06:05:40;;;;;;;6.60;6.13;;;19.30;1.00;;;;;;6282082;28;20229;-54
2022/08/23 06:08:46;;;;;;;5.83;5.40;;;19.40;1.00;;;;;;6276074;28;20237;-55
2022/08/23 06:11:49;;;;;;;5.97;5.40;;;19.40;1.00;;;;;;6277986;28;20261;-56
2022/08/23 06:15:05;;;;;;;6.40;5.87;;;19.50;1.00;;;;;;6279664;28;20237;-54
2022/08/23 06:18:09;;;;;;;5.87;5.37;;;19.60;1.00;;;;;;6282831;28;20382;-54
2022/08/23 06:21:14;;;;;;;6.90;6.03;;;19.80;1.00;;;;;;6281588;28;20233;-55
2022/08/23 06:24:17;;;;;;;7.50;5.60;;;19.90;1.00;;;;;;6282290;28;20282;-55
2022/08/23 06:27:20;;;;;;;6.10;5.00;;;20.00;1.00;;;;;;6282287;28;20585;-56
2022/08/23 06:30:23;;;;;;;10.83;5.50;;;20.10;1.00;;;;;;6278867;28;20335;-56
2022/08/23 06:33:33;;;;;;;6.70;5.33;;;20.10;1.00;;;;;;6283035;28;20229;-55
2022/08/23 06:36:37;;;;;;;6.63;5.30;;;20.10;1.00;;;;;;6282694;28;20603;-57
2022/08/23 06:39:41;;;;;;;5.77;5.40;;;20.20;1.00;;;;;;6279598;28;20375;-59
2022/08/23 06:42:44;;;;;;;9.03;5.30;;;20.20;1.00;;;;;;6281704;28;20744;-54
2022/08/23 06:45:48;;;;;;;6.03;5.53;;;20.20;1.00;;;;;;6281014;28;20225;-55
2022/08/23 06:49:04;;;;;;;5.77;5.23;;;20.30;1.00;;;;;;6275807;28;20377;-55
2022/08/23 06:52:07;;;;;;;5.47;5.17;;;20.30;1.00;;;;;;6282345;28;20706;-55
2022/08/23 06:55:10;;;;;;;5.50;5.03;;;20.50;1.00;;;;;;6277956;28;20244;-55
2022/08/23 06:58:15;;;;;;;6.03;5.40;;;20.60;1.00;;;;;;6282829;28;20467;-55
2022/08/23 07:01:22;;;;;;;6.43;5.80;;;20.70;1.00;;;;;;6282210;28;20312;-56
2022/08/23 07:04:52;;;;;;;8.93;5.67;;;20.80;1.00;;;;;;6271441;28;21376;-54
2022/08/23 07:07:55;;;;;;;8.07;5.17;;;20.90;1.00;;;;;;6278801;28;20244;-51
2022/08/23 07:10:58;;;;;;;6.93;5.23;;;21.00;1.00;;;;;;6286149;28;20376;-54
2022/08/23 07:14:03;;;;;;;6.10;5.53;;;21.20;1.00;;;;;;6276522;28;20382;-57
2022/08/23 07:17:18;;;;;;;8.10;4.87;;;21.30;1.00;;;;;;6285415;28;20237;-57
2022/08/23 07:20:23;;;;;;;6.07;5.07;;;21.30;1.00;;;;;;6286312;28;20440;-56
2022/08/23 07:23:26;;;;;;;5.10;4.60;;;21.30;1.00;;;;;;6280225;28;20245;-55
2022/08/23 07:26:30;;;;;;;4.70;4.50;;;21.40;1.00;;;;;;6285862;28;20294;-54
2022/08/23 07:29:38;;;;;;;5.30;4.83;;;21.50;1.00;;;;;;6285833;28;20361;-55
2022/08/23 07:32:45;;;;;;;7.33;5.20;;;21.50;1.00;;;;;;6283701;28;20580;-55
2022/08/23 07:35:52;;;;;;;5.57;5.00;;;21.60;1.00;;;;;;6285458;28;20312;-54
2022/08/23 07:38:55;;;;;;;6.87;5.17;;;21.70;1.00;;;;;;6280852;28;20251;-55
2022/08/23 07:41:59;;;;;;;5.20;4.63;;;21.70;1.00;;;;;;6280757;28;20242;-55
2022/08/23 07:45:02;;;;;;;5.10;4.57;;;21.80;1.00;;;;;;6276901;28;20320;-56
2022/08/23 07:48:06;;;;;;;5.50;5.07;;;21.90;1.00;;;;;;6285651;28;20298;-55
2022/08/23 07:51:13;;;;;;;6.73;5.00;;;22.00;1.00;;;;;;6283734;28;20717;-55
2022/08/23 07:54:18;;;;;;;5.50;4.57;;;22.20;1.00;;;;;;6285110;28;20333;-56
2022/08/23 07:57:21;;;;;;;8.10;5.43;;;22.20;1.00;;;;;;6284963;28;20252;-55
2022/08/23 08:00:24;;;;;;;5.67;4.87;;;22.30;1.00;;;;;;6280718;28;20415;-55
2022/08/23 08:03:27;;;;;;;6.93;4.97;;;22.40;1.00;;;;;;6283934;28;20311;-56
2022/08/23 08:06:40;;;;;;;5.20;4.67;;;22.40;1.00;;;;;;6285074;28;20236;-59
2022/08/23 08:09:44;;;;;;;10.13;4.70;;;22.50;1.00;;;;;;6279108;28;20261;-56
2022/08/23 08:12:47;;;;;;;4.87;4.10;;;22.60;1.00;;;;;;6285091;28;20233;-55
2022/08/23 08:15:50;;;;;;;4.73;4.33;;;22.60;1.00;;;;;;6283139;28;20243;-55
2022/08/23 08:18:54;;;;;;;5.43;4.33;;;22.70;1.00;;;;;;6275353;28;20650;-56
2022/08/23 08:22:00;;;;;;;4.73;4.33;;;22.80;1.00;;;;;;6284611;28;20243;-56
2022/08/23 08:25:05;;;;;;;5.10;4.73;;;22.90;1.00;;;;;;6282942;28;20360;-56
2022/08/23 08:28:11;;;;;;;5.60;4.90;;;23.00;1.00;;;;;;6279018;28;20283;-56
2022/08/23 08:31:18;;;;;;;6.00;4.20;;;23.00;1.00;;;;;;6279982;28;20244;-55
2022/08/23 08:34:22;;;;;;;4.97;4.57;;;23.10;1.00;;;;;;6281916;28;20256;-56
2022/08/23 08:37:26;;;;;;;5.73;4.50;;;23.30;1.00;;;;;;6282032;28;20241;-55
2022/08/23 08:40:38;;;;;;;5.00;4.50;;;23.40;1.00;;;;;;6280618;28;20299;-54
2022/08/23 08:43:57;;;;;;;4.50;4.10;;;23.60;1.00;;;;;;6284165;28;20656;-55
2022/08/23 08:47:06;;;;;;;4.40;4.03;;;23.70;1.00;;;;;;6273151;28;20320;-55
2022/08/23 08:50:17;;;;;;;7.27;4.53;;;23.80;1.00;;;;;;6280450;28;20370;-58
2022/08/23 08:53:30;;;;;;;6.77;4.20;;;23.80;1.00;;;;;;6283853;28;20245;-56
2022/08/23 08:56:36;;;;;;;6.40;4.43;;;23.90;1.00;;;;;;6280615;28;20324;-55
2022/08/23 08:59:51;;;;;;;4.87;4.20;;;24.00;1.00;;;;;;6282872;28;20303;-55
2022/08/23 09:02:57;;;;;;;4.40;4.00;;;24.00;1.00;;;;;;6283056;28;20304;-55
2022/08/23 09:06:09;;;;;;;5.00;4.43;;;24.00;1.00;;;;;;6273595;28;20238;-58
2022/08/23 09:09:55;;;;;;;6.87;4.10;;;24.00;1.00;;;;;;6283379;28;20968;-57
2022/08/23 09:13:25;;;;;;;4.17;3.87;;;24.00;1.00;;;;;;6276696;28;20690;-55
2022/08/23 09:16:40;;;;;;;6.13;4.60;;;24.00;1.00;;;;;;6279912;28;20371;-54
2022/08/23 09:19:46;;;;;;;5.10;4.60;;;24.00;1.00;;;;;;6281522;28;20355;-56
2022/08/23 09:22:53;;;;;;;4.07;3.60;;;23.90;1.00;;;;;;6278521;28;20237;-54
2022/08/23 09:26:00;;;;;;;4.33;3.97;;;23.90;1.00;;;;;;6281235;28;20314;-55
2022/08/23 09:29:18;;;;;;;7.70;4.17;;;23.90;1.00;;;;;;6282160;28;20240;-55
2022/08/23 09:32:28;;;;;;;6.87;4.13;;;23.90;1.00;;;;;;6285081;28;20238;-55
2022/08/23 09:35:31;;;;;;;8.20;4.33;;;23.90;1.00;;;;;;6284747;28;20241;-55
2022/08/23 09:38:34;;;;;;;4.43;4.07;;;23.90;1.00;;;;;;6277755;28;20817;-55
2022/08/23 09:41:42;;;;;;;4.23;3.90;;;23.90;1.00;;;;;;6281845;28;20371;-55
2022/08/23 09:44:45;;;;;;;3.80;3.50;;;23.90;1.00;;;;;;6276034;28;20368;-55
2022/08/23 09:47:51;;;;;;;4.20;3.80;;;23.90;1.00;;;;;;6280592;28;20233;-55
2022/08/23 09:50:55;;;;;;;4.20;3.80;;;24.00;1.00;;;;;;6278272;28;20342;-56
2022/08/23 09:54:20;;;;;;;5.00;4.50;;;24.00;1.00;;;;;;6282665;28;20241;-55
2022/08/23 09:57:27;;;;;;;5.23;4.13;;;24.00;1.00;;;;;;6280947;28;20237;-52
2022/08/23 10:00:33;;;;;;;3.70;3.50;;;24.10;1.00;;;;;;6282899;28;20327;-54
2022/08/23 10:03:37;;;;;;;4.03;3.63;;;24.20;1.00;;;;;;6282463;28;20422;-55
2022/08/23 10:06:44;;;;;;;4.27;3.90;;;24.20;1.00;;;;;;6280853;28;20237;-55
2022/08/23 10:09:47;;;;;;;5.00;4.67;;;24.30;1.00;;;;;;6281739;28;20321;-55
2022/08/23 10:12:53;;;;;;;4.40;4.20;;;24.40;1.00;;;;;;6280308;28;20319;-56
2022/08/23 10:16:09;;;;;;;6.87;4.27;;;24.50;1.00;;;;;;6279373;28;20381;-56
2022/08/23 10:19:21;;;;;;;5.00;4.57;;;24.70;1.00;;;;;;6281330;28;20234;-57
2022/08/23 10:22:27;;;;;;;4.90;4.60;;;24.90;1.00;;;;;;6279248;28;20408;-57
2022/08/23 10:25:35;;;;;;;5.30;4.80;;;25.00;1.00;;;;;;6281837;28;20673;-54
2022/08/23 10:32:37;;;;;;;5.47;5.07;;;25.20;1.00;;;;;;6277207;28;20264;-55
2022/08/23 10:35:50;;;;;;;7.90;5.73;;;25.30;1.00;;;;;;6280375;28;20257;-56
2022/08/23 10:38:57;;;;;;;5.17;4.73;;;25.50;1.00;;;;;;6275311;28;20436;-54
2022/08/23 10:42:07;;;;;;;5.27;4.97;;;25.60;1.00;;;;;;6283560;28;20237;-54
2022/08/23 10:45:20;;;;;;;5.73;5.40;;;25.70;1.00;;;;;;6286002;28;20225;-55
2022/08/23 10:48:27;;;;;;;5.10;4.73;;;25.60;1.00;;;;;;6282559;28;20295;-54
2022/08/23 10:51:36;;;;;;;7.63;5.23;;;25.60;1.00;;;;;;6267640;28;20694;-53
2022/08/23 10:54:58;;;;;;;7.13;4.70;;;25.70;1.00;;;;;;6292036;28;20320;-57
2022/08/23 10:58:04;;;;;;;4.50;4.20;;;25.80;1.00;;;;;;6278270;28;20631;-55
2022/08/23 11:01:10;;;;;;;4.53;4.20;;;25.90;1.00;;;;;;6285918;28;20255;-52
2022/08/23 11:04:21;;;;;;;4.53;4.23;;;25.90;1.00;;;;;;6285064;28;20225;-54
2022/08/23 11:07:28;;;;;;;4.07;3.77;;;25.90;1.00;;;;;;6284640;28;20617;-56
2022/08/23 11:10:45;;;;;;;4.40;4.20;;;26.00;1.00;;;;;;6284609;28;20705;-56
2022/08/23 11:13:59;;;;;;;3.60;3.47;;;26.00;1.00;;;;;;6285076;28;20359;-55
2022/08/23 11:17:08;;;;;;;4.43;4.00;;;26.10;1.00;;;;;;6276469;28;20298;-55
2022/08/23 11:20:13;;;;;;;3.77;3.57;;;26.20;1.00;;;;;;6285675;28;20781;-56
2022/08/23 11:23:34;;;;;;;7.13;3.90;;;26.10;1.00;;;;;;6285810;28;20244;-56
2022/08/23 11:27:04;;;;;;;5.27;4.83;;;26.20;1.00;;;;;;6283993;28;20320;-55
2022/08/23 11:30:52;;;;;;;6.63;4.77;;;26.00;1.00;;;;;;6272619;28;20363;-56
2022/08/23 11:34:06;;;;;;;4.43;4.17;;;26.00;1.00;;;;;;6276586;28;20544;-55
2022/08/23 11:37:48;;;;;;;4.70;4.40;;;26.00;1.00;;;;;;6273870;28;20235;-56
2022/08/23 11:41:11;;;;;;;3.50;3.20;;;25.90;1.00;;;;;;6283838;28;20310;-55
2022/08/23 11:44:36;;;;;;;4.33;4.03;;;26.00;1.00;;;;;;6279326;28;20259;-56
2022/08/23 11:47:43;;;;;;;4.80;3.80;;;26.00;1.00;;;;;;6275872;28;20237;-56
2022/08/23 11:51:14;;;;;;;4.00;3.77;;;26.00;1.00;;;;;;6283354;28;20237;-55
2022/08/23 11:54:39;;;;;;;4.47;4.23;;;25.90;1.00;;;;;;6275464;28;20244;-55
2022/08/23 11:57:57;;;;;;;6.87;4.50;;;25.70;1.00;;;;;;6282282;28;20233;-57
2022/08/23 12:01:09;;;;;;;4.33;4.03;;;25.60;1.00;;;;;;6272094;28;20234;-55
2022/08/23 12:04:30;;;;;;;7.33;4.23;;;25.80;1.00;;;;;;6283331;28;20248;-61
2022/08/23 12:07:47;;;;;;;4.70;4.40;;;26.00;1.00;;;;;;6284241;28;20238;-56
2022/08/23 12:11:05;;;;;;;4.90;4.50;;;26.20;1.00;;;;;;6283948;28;20579;-55
2022/08/23 12:14:35;;;;;;;4.13;3.83;;;26.70;1.00;;;;;;6276473;28;20234;-55
2022/08/23 12:18:11;;;;;;;4.23;4.03;;;26.80;1.00;;;;;;6276787;28;20261;-57
2022/08/23 12:21:20;;;;;;;8.83;3.67;;;26.90;1.00;;;;;;6284019;28;20307;-57
2022/08/23 12:24:31;;;;;;;4.07;3.77;;;27.20;1.00;;;;;;6284217;28;20330;-56
2022/08/23 12:27:38;;;;;;;4.17;3.77;;;27.30;1.00;;;;;;6284865;28;20710;-55
2022/08/23 12:30:56;;;;;;;4.20;3.50;;;27.40;1.00;;;;;;6280139;28;20525;-55
2022/08/23 12:34:23;;;;;;;4.63;3.70;;;27.20;1.00;;;;;;6280124;28;20385;-56
2022/08/23 12:37:36;;;;;;;3.73;3.20;;;27.00;1.00;;;;;;6285041;28;20714;-56
2022/08/23 12:40:43;;;;;;;3.73;3.50;;;26.80;1.00;;;;;;6282291;28;20944;-56
2022/08/23 12:44:00;;;;;;;2.97;2.80;;;26.80;1.00;;;;;;6283806;28;20711;-56
2022/08/23 12:47:15;;;;;;;3.00;2.90;;;26.90;1.00;;;;;;6277072;28;20757;-56
2022/08/23 12:50:24;;;;;;;4.50;2.77;;;27.00;1.00;;;;;;6283514;28;20577;-54
2022/08/23 12:53:38;;;;;;;4.70;3.30;;;27.00;1.00;;;;;;6279727;28;20776;-57
2022/08/23 12:56:50;;;;;;;3.47;3.27;;;26.90;1.00;;;;;;6284596;28;20411;-55
2022/08/23 13:00:08;;;;;;;3.47;3.27;;;26.80;1.00;;;;;;6284200;28;20293;-54
2022/08/23 13:03:23;;;;;;;3.27;3.17;;;26.90;1.00;;;;;;6279904;28;20221;-56
2022/08/23 13:06:30;;;;;;;6.00;3.40;;;26.90;1.00;;;;;;6284500;28;20312;-57
2022/08/23 13:09:36;;;;;;;3.60;3.30;;;26.70;1.00;;;;;;6280579;28;20610;-56
2022/08/23 13:12:42;;;;;;;3.73;2.97;;;26.50;1.00;;;;;;6282825;28;20225;-55
2022/08/23 13:15:52;;;;;;;3.30;3.10;;;26.20;1.00;;;;;;6283007;28;20613;-54
2022/08/23 13:18:56;;;;;;;4.60;3.53;;;26.00;1.00;;;;;;6273388;28;20265;-57
2022/08/23 13:22:24;;;;;;;3.67;3.47;;;26.00;1.00;;;;;;6284558;28;20341;-56
2022/08/23 13:25:31;;;;;;;4.27;2.90;;;26.10;1.00;;;;;;6256230;28;20383;-56
2022/08/23 13:28:36;;;;;;;4.70;3.20;;;26.30;1.00;;;;;;6280138;28;20264;-56
2022/08/23 13:32:00;;;;;;;3.27;3.00;;;26.50;1.00;;;;;;6283387;28;20402;-56
2022/08/23 13:35:26;;;;;;;3.33;3.13;;;26.70;1.00;;;;;;6281794;28;20232;-55
2022/08/23 13:38:31;;;;;;;3.30;3.10;;;26.70;1.00;;;;;;6274195;28;20242;-56
2022/08/23 13:41:36;;;;;;;2.67;2.53;;;26.80;1.00;;;;;;6280302;28;20326;-55
2022/08/23 13:44:43;;;;;;;3.67;2.90;;;26.80;1.00;;;;;;6278950;28;20229;-56
2022/08/23 13:47:49;;;;;;;3.27;3.00;;;27.10;1.00;;;;;;6283245;28;20237;-56
2022/08/23 13:50:53;;;;;;;3.43;3.23;;;26.90;1.00;;;;;;6276680;28;20233;-55
2022/08/23 13:53:58;;;;;;;3.00;2.90;;;26.90;1.00;;;;;;6273804;28;20617;-56
2022/08/23 13:57:04;;;;;;;3.53;3.20;;;26.90;1.00;;;;;;6282526;28;20229;-53
2022/08/23 14:00:10;;;;;;;3.10;2.90;;;27.00;1.00;;;;;;6274076;28;20241;-54
2022/08/23 14:03:18;;;;;;;4.20;3.90;;;27.00;1.00;;;;;;6281992;28;20698;-56
2022/08/23 14:06:24;;;;;;;3.43;3.23;;;26.90;1.00;;;;;;6283494;28;20374;-56
2022/08/23 14:09:37;;;;;;;5.03;3.50;;;26.90;1.00;;;;;;6279228;28;20285;-54
2022/08/23 14:12:43;;;;;;;3.90;3.50;;;26.80;1.00;;;;;;6282778;28;20289;-56
2022/08/23 14:15:48;;;;;;;4.50;4.10;;;26.70;1.00;;;;;;6287628;28;20332;-56
2022/08/23 14:19:12;;;;;;;6.43;5.47;;;26.70;1.00;;;;;;6280195;28;20252;-56
2022/08/23 14:22:35;;;;;;;4.20;3.97;;;26.70;1.00;;;;;;6284304;28;20238;-55
2022/08/23 14:25:39;;;;;;;3.87;3.73;;;26.80;1.00;;;;;;6283459;28;20240;-57
2022/08/23 14:28:43;;;;;;;3.53;3.23;;;26.90;1.00;;;;;;6287258;28;20297;-55
2022/08/23 14:31:48;;;;;;;3.50;3.17;;;26.90;1.00;;;;;;6287716;28;20599;-55
2022/08/23 14:34:51;;;;;;;3.40;3.17;;;26.90;1.00;;;;;;6284807;28;20343;-57
2022/08/23 14:37:54;;;;;;;3.43;3.10;;;26.80;1.00;;;;;;6287999;28;20320;-55
2022/08/23 14:41:09;;;;;;;3.87;3.57;;;26.70;1.00;;;;;;6283341;28;20248;-56
2022/08/23 14:44:15;;;;;;;3.53;3.27;;;26.30;1.00;;;;;;6286623;28;20249;-55
2022/08/23 14:47:19;;;;;;;3.43;3.23;;;26.30;1.00;;;;;;6286807;28;20658;-56
2022/08/23 14:50:25;;;;;;;3.57;3.40;;;26.10;1.00;;;;;;6283149;28;20324;-55
2022/08/23 14:53:34;;;;;;;3.43;3.33;;;26.00;1.00;;;;;;6287582;28;20249;-56
2022/08/23 14:56:37;;;;;;;5.40;4.17;;;25.90;1.00;;;;;;6283343;28;20237;-55
2022/08/23 14:59:39;;;;;;;5.03;3.63;;;25.90;1.00;;;;;;6286432;28;20308;-61
2022/08/23 15:02:47;;;;;;;4.63;4.00;;;25.90;1.00;;;;;;6287440;28;20312;-56
2022/08/23 15:05:55;;;;;;;5.60;4.30;;;26.00;1.00;;;;;;6280166;28;20371;-56
2022/08/23 15:08:58;;;;;;;3.50;3.30;;;26.10;1.00;;;;;;6280260;28;20819;-55
2022/08/23 15:12:02;;;;;;;3.43;3.30;;;26.10;1.00;;;;;;6287723;28;20845;-55
2022/08/23 15:15:25;;;;;;;3.83;3.47;;;26.10;1.00;;;;;;6282151;28;20295;-56
2022/08/23 15:18:30;;;;;;;3.80;3.47;;;26.10;1.00;;;;;;6282957;28;20336;-55
2022/08/23 15:21:34;;;;;;;3.83;3.67;;;26.00;1.00;;;;;;6286122;28;20320;-57
2022/08/23 15:24:38;;;;;;;4.23;4.10;;;26.00;1.00;;;;;;6270258;28;20835;-56
2022/08/23 15:27:42;;;;;;;7.27;6.63;;;26.00;1.00;;;;;;6276073;28;20229;-57
2022/08/23 15:30:47;;;;;;;6.33;4.93;;;25.80;1.00;;;;;;6278401;28;20622;-55
2022/08/23 15:33:52;;;;;;;4.43;4.10;;;25.60;1.00;;;;;;6284583;28;20613;-54
2022/08/23 15:36:55;;;;;;;4.90;4.60;;;25.50;1.00;;;;;;6281879;28;20743;-55
2022/08/23 15:39:58;;;;;;;4.10;3.90;;;25.50;1.00;;;;;;6276285;28;20316;-56
2022/08/23 15:43:01;;;;;;;4.20;3.90;;;25.70;1.00;;;;;;6284812;28;20312;-55
2022/08/23 15:46:07;;;;;;;4.43;4.03;;;25.80;1.00;;;;;;6283578;28;20237;-55
2022/08/23 15:49:14;;;;;;;3.53;3.30;;;25.80;1.00;;;;;;6284147;28;20229;-56
2022/08/23 15:52:18;;;;;;;4.43;3.93;;;25.90;1.00;;;;;;6285167;28;20299;-55
2022/08/23 15:55:30;;;;;;;3.53;3.23;;;25.80;1.00;;;;;;6281566;28;20720;-57
2022/08/23 15:58:33;;;;;;;3.43;3.27;;;25.80;1.00;;;;;;6284547;28;20286;-56
2022/08/23 16:01:36;;;;;;;3.70;3.50;;;25.60;1.00;;;;;;6284653;28;20444;-55
2022/08/23 16:04:41;;;;;;;3.33;3.13;;;25.50;1.00;;;;;;6280016;28;20236;-55
2022/08/23 16:07:55;;;;;;;4.70;3.77;;;25.30;1.00;;;;;;6284963;28;20229;-55
2022/08/23 16:11:03;;;;;;;3.60;3.40;;;25.20;1.00;;;;;;6281143;28;20256;-57
2022/08/23 16:14:06;;;;;;;7.90;3.70;;;25.10;1.00;;;;;;6274792;28;20386;-55
2022/08/23 16:17:10;;;;;;;4.40;4.00;;;25.10;1.00;;;;;;6285059;28;20245;-55
2022/08/23 16:20:14;;;;;;;3.40;3.20;;;25.00;1.00;;;;;;6283322;28;20248;-56
2022/08/23 16:23:17;;;;;;;3.63;3.33;;;24.90;1.00;;;;;;6280642;28;20261;-54
2022/08/23 16:26:24;;;;;;;6.60;3.70;;;24.80;1.00;;;;;;6285671;28;20263;-57
2022/08/23 16:29:39;;;;;;;3.47;3.27;;;24.80;1.00;;;;;;6282609;28;20797;-56
2022/08/23 16:32:42;;;;;;;4.63;3.20;;;24.70;1.00;;;;;;6276974;28;20248;-54
2022/08/23 16:35:46;;;;;;;3.97;3.23;;;24.60;1.00;;;;;;6283435;28;20328;-56
2022/08/23 16:38:49;;;;;;;4.10;3.70;;;24.50;1.00;;;;;;6276060;28;20863;-56
2022/08/23 16:41:54;;;;;;;4.40;3.83;;;24.50;1.00;;;;;;6283030;28;20307;-54
2022/08/23 16:44:57;;;;;;;4.13;3.93;;;24.50;1.00;;;;;;6283384;28;20616;-55
2022/08/23 16:48:00;;;;;;;4.00;3.70;;;24.40;1.00;;;;;;6283818;28;20770;-56